sensor_id;sensor_type;location;lat;lon;timestamp;pressure;altitude;pressure_sealevel;temperature;humidity
72975;BME280;61166;54.228;37.632;2023-08-24T00:00:21;98876.31;;;12.52;nan
72975;BME280;61166;54.228;37.632;2023-08-24T00:02:47;98876.78;;;12.49;nan
72975;BME280;61166;54.228;37.632;2023-08-24T00:05:14;98875.19;;;12.48;nan
72975;BME280;61166;54.228;37.632;2023-08-24T00:07:41;98878.63;;;12.48;nan
72975;BME280;61166;54.228;37.632;2023-08-24T00:10:08;98885.72;;;12.48;nan
72975;BME280;61166;54.228;37.632;2023-08-24T00:12:35;98879.88;;;12.46;nan
72975;BME280;61166;54.228;37.632;2023-08-24T00:15:01;98882.75;;;12.44;nan
72975;BME280;61166;54.228;37.632;2023-08-24T00:17:28;98884.94;;;12.47;nan
72975;BME280;61166;54.228;37.632;2023-08-24T00:19:54;98879.44;;;12.49;nan
72975;BME280;61166;54.228;37.632;2023-08-24T00:22:21;98887.56;;;12.47;nan
72975;BME280;61166;54.228;37.632;2023-08-24T00:24:48;98885.97;;;12.46;nan
72975;BME280;61166;54.228;37.632;2023-08-24T00:27:14;98891.47;;;12.45;nan
72975;BME280;61166;54.228;37.632;2023-08-24T00:29:41;98890.09;;;12.42;nan
72975;BME280;61166;54.228;37.632;2023-08-24T00:32:07;98889.88;;;12.44;nan
72975;BME280;61166;54.228;37.632;2023-08-24T00:34:34;98876.69;;;12.44;nan
72975;BME280;61166;54.228;37.632;2023-08-24T00:37:00;98881.94;;;12.44;nan
72975;BME280;61166;54.228;37.632;2023-08-24T00:39:27;98887.22;;;12.44;nan
72975;BME280;61166;54.228;37.632;2023-08-24T00:41:53;98898.81;;;12.43;nan
72975;BME280;61166;54.228;37.632;2023-08-24T00:44:20;98894.09;;;12.45;nan
72975;BME280;61166;54.228;37.632;2023-08-24T00:46:47;98892.16;;;12.40;nan
72975;BME280;61166;54.228;37.632;2023-08-24T00:49:13;98903.72;;;12.39;nan
72975;BME280;61166;54.228;37.632;2023-08-24T00:51:40;98891.81;;;12.37;nan
72975;BME280;61166;54.228;37.632;2023-08-24T00:54:07;98896.50;;;12.35;nan
72975;BME280;61166;54.228;37.632;2023-08-24T00:56:34;98889.06;;;12.32;nan
72975;BME280;61166;54.228;37.632;2023-08-24T00:59:00;98899.25;;;12.28;nan
72975;BME280;61166;54.228;37.632;2023-08-24T01:01:27;98897.31;;;12.23;nan
72975;BME280;61166;54.228;37.632;2023-08-24T01:03:54;98891.13;;;12.30;nan
72975;BME280;61166;54.228;37.632;2023-08-24T01:06:21;98896.16;;;12.31;nan
72975;BME280;61166;54.228;37.632;2023-08-24T01:08:47;98898.47;;;12.28;nan
72975;BME280;61166;54.228;37.632;2023-08-24T01:16:33;98898.78;;;12.19;nan
72975;BME280;61166;54.228;37.632;2023-08-24T01:19:02;98902.81;;;12.22;nan
72975;BME280;61166;54.228;37.632;2023-08-24T01:21:30;98901.44;;;12.19;nan
72975;BME280;61166;54.228;37.632;2023-08-24T01:24:16;98897.41;;;12.17;nan
72975;BME280;61166;54.228;37.632;2023-08-24T01:26:48;98898.22;;;12.17;nan
72975;BME280;61166;54.228;37.632;2023-08-24T01:29:15;98900.75;;;12.12;nan
72975;BME280;61166;54.228;37.632;2023-08-24T01:31:41;98903.84;;;12.09;nan
72975;BME280;61166;54.228;37.632;2023-08-24T01:34:08;98899.03;;;12.06;nan
72975;BME280;61166;54.228;37.632;2023-08-24T01:36:35;98901.31;;;12.03;nan
72975;BME280;61166;54.228;37.632;2023-08-24T01:39:11;98905.34;;;12.05;nan
72975;BME280;61166;54.228;37.632;2023-08-24T01:41:42;98907.53;;;12.08;nan
72975;BME280;61166;54.228;37.632;2023-08-24T01:44:13;98900.88;;;12.06;nan
72975;BME280;61166;54.228;37.632;2023-08-24T01:46:42;98908.56;;;12.07;nan
72975;BME280;61166;54.228;37.632;2023-08-24T01:49:12;98904.31;;;12.06;nan
72975;BME280;61166;54.228;37.632;2023-08-24T01:51:40;98905.34;;;12.05;nan
72975;BME280;61166;54.228;37.632;2023-08-24T01:54:08;98907.75;;;12.07;nan
72975;BME280;61166;54.228;37.632;2023-08-24T01:56:35;98919.19;;;12.01;nan
72975;BME280;61166;54.228;37.632;2023-08-24T01:59:01;98926.88;;;12.02;nan
72975;BME280;61166;54.228;37.632;2023-08-24T02:01:28;98918.41;;;12.00;nan
72975;BME280;61166;54.228;37.632;2023-08-24T02:03:55;98916.78;;;11.99;nan
72975;BME280;61166;54.228;37.632;2023-08-24T02:06:21;98917.38;;;12.01;nan
72975;BME280;61166;54.228;37.632;2023-08-24T02:08:48;98916.34;;;12.02;nan
72975;BME280;61166;54.228;37.632;2023-08-24T02:11:14;98901.69;;;12.06;nan
72975;BME280;61166;54.228;37.632;2023-08-24T02:13:41;98910.97;;;12.09;nan
72975;BME280;61166;54.228;37.632;2023-08-24T02:16:08;98914.97;;;12.11;nan
72975;BME280;61166;54.228;37.632;2023-08-24T02:18:36;98914.75;;;12.13;nan
72975;BME280;61166;54.228;37.632;2023-08-24T02:21:09;98920.03;;;12.13;nan
72975;BME280;61166;54.228;37.632;2023-08-24T02:23:36;98923.91;;;12.10;nan
72975;BME280;61166;54.228;37.632;2023-08-24T02:26:02;98924.38;;;12.07;nan
72975;BME280;61166;54.228;37.632;2023-08-24T02:28:29;98917.69;;;12.16;nan
72975;BME280;61166;54.228;37.632;2023-08-24T02:31:00;98924.94;;;12.33;nan
72975;BME280;61166;54.228;37.632;2023-08-24T02:33:27;98929.66;;;12.54;nan
72975;BME280;61166;54.228;37.632;2023-08-24T02:35:53;98923.19;;;12.73;nan
72975;BME280;61166;54.228;37.632;2023-08-24T02:38:20;98930.88;;;12.86;nan
72975;BME280;61166;54.228;37.632;2023-08-24T02:40:47;98933.94;;;13.07;nan
72975;BME280;61166;54.228;37.632;2023-08-24T02:43:13;98936.34;;;13.20;nan
72975;BME280;61166;54.228;37.632;2023-08-24T02:45:40;98937.09;;;13.32;nan
72975;BME280;61166;54.228;37.632;2023-08-24T02:48:06;98937.84;;;13.44;nan
72975;BME280;61166;54.228;37.632;2023-08-24T02:50:33;98935.97;;;13.57;nan
72975;BME280;61166;54.228;37.632;2023-08-24T02:53:00;98931.44;;;13.69;nan
72975;BME280;61166;54.228;37.632;2023-08-24T02:55:26;98937.72;;;13.79;nan
72975;BME280;61166;54.228;37.632;2023-08-24T02:57:53;98933.84;;;13.87;nan
72975;BME280;61166;54.228;37.632;2023-08-24T03:00:19;98938.19;;;13.93;nan
72975;BME280;61166;54.228;37.632;2023-08-24T03:02:46;98935.16;;;14.01;nan
72975;BME280;61166;54.228;37.632;2023-08-24T03:05:13;98938.13;;;14.05;nan
72975;BME280;61166;54.228;37.632;2023-08-24T03:07:39;98938.19;;;14.10;nan
72975;BME280;61166;54.228;37.632;2023-08-24T03:10:06;98937.00;;;14.17;nan
72975;BME280;61166;54.228;37.632;2023-08-24T03:12:33;98937.88;;;14.23;nan
72975;BME280;61166;54.228;37.632;2023-08-24T03:14:59;98931.31;;;14.26;nan
72975;BME280;61166;54.228;37.632;2023-08-24T03:17:26;98939.50;;;14.41;nan
72975;BME280;61166;54.228;37.632;2023-08-24T03:19:52;98933.56;;;14.50;nan
72975;BME280;61166;54.228;37.632;2023-08-24T03:22:19;98931.53;;;14.58;nan
72975;BME280;61166;54.228;37.632;2023-08-24T03:24:46;98931.94;;;14.66;nan
72975;BME280;61166;54.228;37.632;2023-08-24T03:27:12;98941.06;;;14.75;nan
72975;BME280;61166;54.228;37.632;2023-08-24T03:29:39;98937.19;;;14.83;nan
72975;BME280;61166;54.228;37.632;2023-08-24T03:32:05;98942.31;;;14.90;nan
72975;BME280;61166;54.228;37.632;2023-08-24T03:34:32;98934.94;;;14.92;nan
72975;BME280;61166;54.228;37.632;2023-08-24T03:36:58;98939.25;;;14.98;nan
72975;BME280;61166;54.228;37.632;2023-08-24T03:39:25;98935.34;;;15.05;nan
72975;BME280;61166;54.228;37.632;2023-08-24T03:41:52;98935.91;;;15.07;nan
72975;BME280;61166;54.228;37.632;2023-08-24T03:44:18;98939.97;;;15.15;nan
72975;BME280;61166;54.228;37.632;2023-08-24T03:46:45;98941.38;;;15.23;nan
72975;BME280;61166;54.228;37.632;2023-08-24T03:49:11;98938.06;;;15.32;nan
72975;BME280;61166;54.228;37.632;2023-08-24T03:51:38;98946.63;;;15.39;nan
72975;BME280;61166;54.228;37.632;2023-08-24T03:54:05;98955.19;;;15.46;nan
72975;BME280;61166;54.228;37.632;2023-08-24T03:56:31;98954.19;;;15.52;nan
72975;BME280;61166;54.228;37.632;2023-08-24T03:58:58;98951.84;;;15.56;nan
72975;BME280;61166;54.228;37.632;2023-08-24T04:01:25;98950.34;;;15.65;nan
72975;BME280;61166;54.228;37.632;2023-08-24T04:03:51;98945.91;;;15.71;nan
72975;BME280;61166;54.228;37.632;2023-08-24T04:06:18;98954.91;;;15.70;nan
72975;BME280;61166;54.228;37.632;2023-08-24T04:08:45;98948.84;;;15.74;nan
72975;BME280;61166;54.228;37.632;2023-08-24T04:11:12;98953.97;;;15.81;nan
72975;BME280;61166;54.228;37.632;2023-08-24T04:13:38;98948.25;;;15.94;nan
72975;BME280;61166;54.228;37.632;2023-08-24T04:16:05;98944.34;;;16.02;nan
72975;BME280;61166;54.228;37.632;2023-08-24T04:18:31;98946.03;;;16.13;nan
72975;BME280;61166;54.228;37.632;2023-08-24T04:20:58;98944.47;;;16.22;nan
72975;BME280;61166;54.228;37.632;2023-08-24T04:23:25;98947.47;;;16.31;nan
72975;BME280;61166;54.228;37.632;2023-08-24T04:25:52;98950.97;;;16.36;nan
72975;BME280;61166;54.228;37.632;2023-08-24T04:28:20;98946.50;;;16.42;nan
72975;BME280;61166;54.228;37.632;2023-08-24T04:30:50;98957.66;;;16.44;nan
72975;BME280;61166;54.228;37.632;2023-08-24T04:33:17;98953.44;;;16.48;nan
72975;BME280;61166;54.228;37.632;2023-08-24T04:35:48;98952.13;;;16.50;nan
72975;BME280;61166;54.228;37.632;2023-08-24T04:38:16;98957.66;;;16.44;nan
72975;BME280;61166;54.228;37.632;2023-08-24T04:43:12;98951.25;;;16.40;nan
72975;BME280;61166;54.228;37.632;2023-08-24T04:45:39;98954.50;;;16.47;nan
72975;BME280;61166;54.228;37.632;2023-08-24T04:48:05;98953.94;;;16.45;nan
72975;BME280;61166;54.228;37.632;2023-08-24T04:50:32;98953.94;;;16.45;nan
72975;BME280;61166;54.228;37.632;2023-08-24T04:52:59;98954.47;;;16.42;nan
72975;BME280;61166;54.228;37.632;2023-08-24T04:55:25;98950.03;;;16.52;nan
72975;BME280;61166;54.228;37.632;2023-08-24T04:57:52;98952.53;;;16.64;nan
72975;BME280;61166;54.228;37.632;2023-08-24T05:00:19;98954.16;;;16.75;nan
72975;BME280;61166;54.228;37.632;2023-08-24T05:02:46;98955.22;;;16.69;nan
72975;BME280;61166;54.228;37.632;2023-08-24T05:05:13;98956.34;;;16.83;nan
72975;BME280;61166;54.228;37.632;2023-08-24T05:07:40;98960.09;;;16.93;nan
72975;BME280;61166;54.228;37.632;2023-08-24T05:10:07;98958.59;;;17.07;nan
72975;BME280;61166;54.228;37.632;2023-08-24T05:12:34;98943.22;;;17.19;nan
72975;BME280;61166;54.228;37.632;2023-08-24T05:15:04;98949.63;;;17.33;nan
72975;BME280;61166;54.228;37.632;2023-08-24T05:17:31;98948.38;;;17.51;nan
72975;BME280;61166;54.228;37.632;2023-08-24T05:19:58;98948.09;;;17.53;nan
72975;BME280;61166;54.228;37.632;2023-08-24T05:22:25;98945.47;;;17.63;nan
72975;BME280;61166;54.228;37.632;2023-08-24T05:24:51;98949.53;;;17.75;nan
72975;BME280;61166;54.228;37.632;2023-08-24T05:27:18;98943.44;;;17.85;nan
72975;BME280;61166;54.228;37.632;2023-08-24T05:29:45;98940.75;;;17.95;nan
72975;BME280;61166;54.228;37.632;2023-08-24T05:32:11;98943.16;;;18.12;nan
72975;BME280;61166;54.228;37.632;2023-08-24T05:34:38;98945.28;;;18.45;nan
72975;BME280;61166;54.228;37.632;2023-08-24T05:37:04;98932.66;;;19.02;nan
72975;BME280;61166;54.228;37.632;2023-08-24T05:39:31;98935.38;;;19.46;nan
72975;BME280;61166;54.228;37.632;2023-08-24T05:41:58;98925.38;;;19.67;nan
72975;BME280;61166;54.228;37.632;2023-08-24T05:44:24;98930.66;;;19.77;nan
72975;BME280;61166;54.228;37.632;2023-08-24T05:46:51;98932.16;;;19.54;nan
72975;BME280;61166;54.228;37.632;2023-08-24T05:49:17;98933.03;;;19.29;nan
72975;BME280;61166;54.228;37.632;2023-08-24T05:51:44;98930.69;;;19.18;nan
72975;BME280;61166;54.228;37.632;2023-08-24T05:54:10;98938.97;;;19.16;nan
72975;BME280;61166;54.228;37.632;2023-08-24T05:56:37;98939.53;;;19.08;nan
72975;BME280;61166;54.228;37.632;2023-08-24T05:59:04;98935.31;;;19.02;nan
72975;BME280;61166;54.228;37.632;2023-08-24T06:01:31;98933.25;;;18.73;nan
72975;BME280;61166;54.228;37.632;2023-08-24T06:03:58;98941.25;;;18.68;nan
72975;BME280;61166;54.228;37.632;2023-08-24T06:06:25;98928.47;;;18.75;nan
72975;BME280;61166;54.228;37.632;2023-08-24T06:08:51;98941.19;;;18.94;nan
72975;BME280;61166;54.228;37.632;2023-08-24T06:11:18;98941.22;;;18.89;nan
72975;BME280;61166;54.228;37.632;2023-08-24T06:13:44;98948.91;;;18.95;nan
72975;BME280;61166;54.228;37.632;2023-08-24T06:16:11;98942.16;;;19.13;nan
72975;BME280;61166;54.228;37.632;2023-08-24T06:18:38;98945.84;;;19.27;nan
72975;BME280;61166;54.228;37.632;2023-08-24T06:21:04;98937.75;;;19.53;nan
72975;BME280;61166;54.228;37.632;2023-08-24T06:23:31;98941.72;;;19.99;nan
72975;BME280;61166;54.228;37.632;2023-08-24T06:25:58;98940.53;;;20.16;nan
72975;BME280;61166;54.228;37.632;2023-08-24T06:28:24;98945.13;;;20.39;nan
72975;BME280;61166;54.228;37.632;2023-08-24T06:30:51;98941.25;;;20.55;nan
72975;BME280;61166;54.228;37.632;2023-08-24T06:33:17;98938.44;;;20.36;nan
72975;BME280;61166;54.228;37.632;2023-08-24T06:35:44;98943.28;;;20.34;nan
72975;BME280;61166;54.228;37.632;2023-08-24T06:38:10;98937.66;;;21.13;nan
72975;BME280;61166;54.228;37.632;2023-08-24T06:40:37;98936.19;;;22.00;nan
72975;BME280;61166;54.228;37.632;2023-08-24T06:43:03;98946.09;;;22.19;nan
72975;BME280;61166;54.228;37.632;2023-08-24T06:45:31;98937.72;;;22.39;nan
72975;BME280;61166;54.228;37.632;2023-08-24T06:47:58;98939.22;;;22.45;nan
72975;BME280;61166;54.228;37.632;2023-08-24T06:50:24;98937.03;;;22.47;nan
72975;BME280;61166;54.228;37.632;2023-08-24T06:52:51;98941.13;;;22.72;nan
72975;BME280;61166;54.228;37.632;2023-08-24T06:55:17;98948.47;;;22.53;nan
72975;BME280;61166;54.228;37.632;2023-08-24T06:57:47;98941.19;;;22.39;nan
72975;BME280;61166;54.228;37.632;2023-08-24T07:00:15;98942.78;;;22.54;nan
72975;BME280;61166;54.228;37.632;2023-08-24T07:02:49;98948.94;;;23.01;nan
72975;BME280;61166;54.228;37.632;2023-08-24T07:05:16;98948.13;;;22.87;nan
72975;BME280;61166;54.228;37.632;2023-08-24T07:07:44;98949.88;;;23.32;nan
72975;BME280;61166;54.228;37.632;2023-08-24T07:10:11;98948.91;;;24.00;nan
72975;BME280;61166;54.228;37.632;2023-08-24T07:12:38;98953.06;;;24.07;nan
72975;BME280;61166;54.228;37.632;2023-08-24T07:15:05;98945.69;;;23.90;nan
72975;BME280;61166;54.228;37.632;2023-08-24T07:17:31;98947.56;;;23.89;nan
72975;BME280;61166;54.228;37.632;2023-08-24T07:19:58;98945.22;;;24.63;nan
72975;BME280;61166;54.228;37.632;2023-08-24T07:22:25;98940.88;;;25.33;nan
72975;BME280;61166;54.228;37.632;2023-08-24T07:24:52;98944.53;;;25.54;nan
72975;BME280;61166;54.228;37.632;2023-08-24T07:27:19;98946.47;;;25.71;nan
72975;BME280;61166;54.228;37.632;2023-08-24T07:29:46;98951.34;;;26.04;nan
72975;BME280;61166;54.228;37.632;2023-08-24T07:32:13;98956.06;;;26.88;nan
72975;BME280;61166;54.228;37.632;2023-08-24T07:34:40;98941.06;;;27.58;nan
72975;BME280;61166;54.228;37.632;2023-08-24T07:37:06;98945.00;;;28.23;nan
72975;BME280;61166;54.228;37.632;2023-08-24T07:39:33;98937.91;;;27.98;nan
72975;BME280;61166;54.228;37.632;2023-08-24T07:42:00;98941.53;;;28.35;nan
72975;BME280;61166;54.228;37.632;2023-08-24T07:44:26;98950.66;;;28.30;nan
72975;BME280;61166;54.228;37.632;2023-08-24T07:46:53;98944.22;;;28.35;nan
72975;BME280;61166;54.228;37.632;2023-08-24T07:49:19;98942.25;;;28.56;nan
72975;BME280;61166;54.228;37.632;2023-08-24T07:51:46;98935.63;;;28.90;nan
72975;BME280;61166;54.228;37.632;2023-08-24T07:54:13;98922.75;;;29.23;nan
72975;BME280;61166;54.228;37.632;2023-08-24T07:56:39;98928.06;;;30.28;nan
72975;BME280;61166;54.228;37.632;2023-08-24T07:59:06;98928.81;;;30.13;nan
72975;BME280;61166;54.228;37.632;2023-08-24T08:01:33;98923.34;;;29.97;nan
72975;BME280;61166;54.228;37.632;2023-08-24T08:03:59;98919.97;;;30.00;nan
72975;BME280;61166;54.228;37.632;2023-08-24T08:06:26;98918.84;;;30.61;nan
72975;BME280;61166;54.228;37.632;2023-08-24T08:08:53;98915.91;;;30.22;nan
72975;BME280;61166;54.228;37.632;2023-08-24T08:11:19;98919.72;;;29.77;nan
72975;BME280;61166;54.228;37.632;2023-08-24T08:13:46;98913.75;;;29.07;nan
72975;BME280;61166;54.228;37.632;2023-08-24T08:16:12;98918.59;;;29.26;nan
72975;BME280;61166;54.228;37.632;2023-08-24T08:18:39;98918.38;;;30.90;nan
72975;BME280;61166;54.228;37.632;2023-08-24T08:21:10;98907.94;;;32.01;nan
72975;BME280;61166;54.228;37.632;2023-08-24T08:23:36;98906.41;;;32.45;nan
72975;BME280;61166;54.228;37.632;2023-08-24T08:26:03;98908.53;;;32.56;nan
72975;BME280;61166;54.228;37.632;2023-08-24T08:28:30;98907.84;;;32.39;nan
72975;BME280;61166;54.228;37.632;2023-08-24T08:30:56;98898.47;;;32.14;nan
72975;BME280;61166;54.228;37.632;2023-08-24T08:33:23;98899.50;;;31.67;nan
72975;BME280;61166;54.228;37.632;2023-08-24T08:35:50;98910.16;;;30.86;nan
72975;BME280;61166;54.228;37.632;2023-08-24T08:38:16;98899.22;;;29.52;nan
72975;BME280;61166;54.228;37.632;2023-08-24T08:40:43;98902.06;;;28.34;nan
72975;BME280;61166;54.228;37.632;2023-08-24T08:43:13;98896.28;;;27.57;nan
72975;BME280;61166;54.228;37.632;2023-08-24T08:45:39;98901.31;;;26.96;nan
72975;BME280;61166;54.228;37.632;2023-08-24T08:48:06;98899.16;;;27.31;nan
72975;BME280;61166;54.228;37.632;2023-08-24T08:50:34;98910.88;;;27.14;nan
72975;BME280;61166;54.228;37.632;2023-08-24T08:53:01;98907.06;;;27.36;nan
72975;BME280;61166;54.228;37.632;2023-08-24T08:55:28;98907.31;;;27.85;nan
72975;BME280;61166;54.228;37.632;2023-08-24T08:57:56;98904.13;;;28.49;nan
72975;BME280;61166;54.228;37.632;2023-08-24T09:00:25;98900.44;;;28.78;nan
72975;BME280;61166;54.228;37.632;2023-08-24T09:02:53;98903.78;;;28.38;nan
72975;BME280;61166;54.228;37.632;2023-08-24T09:05:21;98901.91;;;27.73;nan
72975;BME280;61166;54.228;37.632;2023-08-24T09:07:48;98905.56;;;27.47;nan
72975;BME280;61166;54.228;37.632;2023-08-24T09:10:15;98900.66;;;27.70;nan
72975;BME280;61166;54.228;37.632;2023-08-24T09:12:42;98907.38;;;27.64;nan
72975;BME280;61166;54.228;37.632;2023-08-24T09:15:09;98904.25;;;27.53;nan
72975;BME280;61166;54.228;37.632;2023-08-24T09:17:35;98912.19;;;27.08;nan
72975;BME280;61166;54.228;37.632;2023-08-24T09:20:06;98915.63;;;26.79;nan
72975;BME280;61166;54.228;37.632;2023-08-24T09:22:37;98925.13;;;26.47;nan
72975;BME280;61166;54.228;37.632;2023-08-24T09:25:04;98922.66;;;26.08;nan
72975;BME280;61166;54.228;37.632;2023-08-24T09:27:31;98913.50;;;25.74;nan
72975;BME280;61166;54.228;37.632;2023-08-24T09:29:58;98918.56;;;25.84;nan
72975;BME280;61166;54.228;37.632;2023-08-24T09:32:28;98923.94;;;26.02;nan
72975;BME280;61166;54.228;37.632;2023-08-24T09:34:55;98919.31;;;26.02;nan
72975;BME280;61166;54.228;37.632;2023-08-24T09:37:22;98924.88;;;26.70;nan
72975;BME280;61166;54.228;37.632;2023-08-24T09:39:48;98912.16;;;28.57;nan
72975;BME280;61166;54.228;37.632;2023-08-24T09:42:24;98906.84;;;29.34;nan
72975;BME280;61166;54.228;37.632;2023-08-24T09:44:54;98908.34;;;29.60;nan
72975;BME280;61166;54.228;37.632;2023-08-24T09:47:23;98904.72;;;28.67;nan
72975;BME280;61166;54.228;37.632;2023-08-24T09:49:50;98905.38;;;27.52;nan
72975;BME280;61166;54.228;37.632;2023-08-24T09:52:17;98914.66;;;26.84;nan
72975;BME280;61166;54.228;37.632;2023-08-24T09:54:44;98910.03;;;25.74;nan
72975;BME280;61166;54.228;37.632;2023-08-24T09:57:12;98913.59;;;24.69;nan
72975;BME280;61166;54.228;37.632;2023-08-24T09:59:39;98908.25;;;25.60;nan
72975;BME280;61166;54.228;37.632;2023-08-24T10:02:16;98907.25;;;26.34;nan
72975;BME280;61166;54.228;37.632;2023-08-24T10:04:44;98908.97;;;26.77;nan
72975;BME280;61166;54.228;37.632;2023-08-24T10:07:15;98901.03;;;26.42;nan
72975;BME280;61166;54.228;37.632;2023-08-24T10:09:58;98913.16;;;26.02;nan
72975;BME280;61166;54.228;37.632;2023-08-24T10:12:28;98909.06;;;25.78;nan
72975;BME280;61166;54.228;37.632;2023-08-24T10:15:02;98906.38;;;25.95;nan
72975;BME280;61166;54.228;37.632;2023-08-24T10:17:31;98910.34;;;25.89;nan
72975;BME280;61166;54.228;37.632;2023-08-24T10:19:58;98901.63;;;25.84;nan
72975;BME280;61166;54.228;37.632;2023-08-24T10:22:25;98907.16;;;25.87;nan
72975;BME280;61166;54.228;37.632;2023-08-24T10:24:53;98907.94;;;25.96;nan
72975;BME280;61166;54.228;37.632;2023-08-24T10:27:22;98896.19;;;26.10;nan
72975;BME280;61166;54.228;37.632;2023-08-24T10:29:49;98900.41;;;26.28;nan
72975;BME280;61166;54.228;37.632;2023-08-24T10:32:16;98904.16;;;25.89;nan
72975;BME280;61166;54.228;37.632;2023-08-24T10:34:43;98897.97;;;25.37;nan
72975;BME280;61166;54.228;37.632;2023-08-24T10:37:11;98904.31;;;24.84;nan
72975;BME280;61166;54.228;37.632;2023-08-24T10:39:44;98914.91;;;24.89;nan
72975;BME280;61166;54.228;37.632;2023-08-24T10:42:12;98898.72;;;25.20;nan
72975;BME280;61166;54.228;37.632;2023-08-24T10:44:43;98894.78;;;25.34;nan
72975;BME280;61166;54.228;37.632;2023-08-24T10:47:15;98896.81;;;24.63;nan
72975;BME280;61166;54.228;37.632;2023-08-24T10:49:43;98900.16;;;24.69;nan
72975;BME280;61166;54.228;37.632;2023-08-24T10:52:25;98896.72;;;24.46;nan
72975;BME280;61166;54.228;37.632;2023-08-24T10:54:53;98891.53;;;24.19;nan
72975;BME280;61166;54.228;37.632;2023-08-24T10:57:24;98889.22;;;24.65;nan
72975;BME280;61166;54.228;37.632;2023-08-24T11:00:04;98886.66;;;24.60;nan
72975;BME280;61166;54.228;37.632;2023-08-24T11:02:45;98883.41;;;24.89;nan
72975;BME280;61166;54.228;37.632;2023-08-24T11:05:20;98881.38;;;24.95;nan
72975;BME280;61166;54.228;37.632;2023-08-24T11:07:56;98887.22;;;24.88;nan
72975;BME280;61166;54.228;37.632;2023-08-24T11:10:24;98889.53;;;24.64;nan
72975;BME280;61166;54.228;37.632;2023-08-24T11:15:31;98890.69;;;23.87;nan
72975;BME280;61166;54.228;37.632;2023-08-24T11:18:38;98883.59;;;23.33;nan
72975;BME280;61166;54.228;37.632;2023-08-24T11:21:05;98883.66;;;23.42;nan
72975;BME280;61166;54.228;37.632;2023-08-24T11:23:33;98889.56;;;23.30;nan
72975;BME280;61166;54.228;37.632;2023-08-24T11:26:00;98878.00;;;23.57;nan
72975;BME280;61166;54.228;37.632;2023-08-24T11:28:28;98875.06;;;23.67;nan
72975;BME280;61166;54.228;37.632;2023-08-24T11:30:56;98865.22;;;23.85;nan
72975;BME280;61166;54.228;37.632;2023-08-24T11:33:27;98865.13;;;24.21;nan
72975;BME280;61166;54.228;37.632;2023-08-24T11:35:55;98863.09;;;24.57;nan
72975;BME280;61166;54.228;37.632;2023-08-24T11:38:21;98872.03;;;24.75;nan
72975;BME280;61166;54.228;37.632;2023-08-24T11:40:48;98876.25;;;24.67;nan
72975;BME280;61166;54.228;37.632;2023-08-24T11:43:25;98875.44;;;24.58;nan
72975;BME280;61166;54.228;37.632;2023-08-24T11:45:53;98867.03;;;24.51;nan
72975;BME280;61166;54.228;37.632;2023-08-24T11:48:24;98868.44;;;24.49;nan
72975;BME280;61166;54.228;37.632;2023-08-24T11:50:51;98863.09;;;24.57;nan
72975;BME280;61166;54.228;37.632;2023-08-24T11:53:19;98865.16;;;24.60;nan
72975;BME280;61166;54.228;37.632;2023-08-24T11:55:45;98866.41;;;24.54;nan
72975;BME280;61166;54.228;37.632;2023-08-24T11:58:31;98860.25;;;24.23;nan
72975;BME280;61166;54.228;37.632;2023-08-24T12:00:58;98865.34;;;24.33;nan
72975;BME280;61166;54.228;37.632;2023-08-24T12:03:26;98857.94;;;24.08;nan
72975;BME280;61166;54.228;37.632;2023-08-24T12:05:52;98863.84;;;24.18;nan
72975;BME280;61166;54.228;37.632;2023-08-24T12:08:19;98865.22;;;23.85;nan
72975;BME280;61166;54.228;37.632;2023-08-24T12:10:46;98861.25;;;23.82;nan
72975;BME280;61166;54.228;37.632;2023-08-24T12:13:12;98859.72;;;23.90;nan
72975;BME280;61166;54.228;37.632;2023-08-24T12:15:40;98864.63;;;23.88;nan
72975;BME280;61166;54.228;37.632;2023-08-24T12:18:11;98860.53;;;23.68;nan
72975;BME280;61166;54.228;37.632;2023-08-24T12:20:39;98856.75;;;23.69;nan
72975;BME280;61166;54.228;37.632;2023-08-24T12:23:07;98867.25;;;23.43;nan
72975;BME280;61166;54.228;37.632;2023-08-24T12:25:37;98868.97;;;23.39;nan
72975;BME280;61166;54.228;37.632;2023-08-24T12:28:14;98859.34;;;23.24;nan
72975;BME280;61166;54.228;37.632;2023-08-24T12:30:47;98856.09;;;23.14;nan
72975;BME280;61166;54.228;37.632;2023-08-24T12:33:27;98850.19;;;22.89;nan
72975;BME280;61166;54.228;37.632;2023-08-24T12:35:55;98863.41;;;22.86;nan
72975;BME280;61166;54.228;37.632;2023-08-24T12:38:24;98864.50;;;22.85;nan
72975;BME280;61166;54.228;37.632;2023-08-24T12:40:52;98860.34;;;22.79;nan
72975;BME280;61166;54.228;37.632;2023-08-24T12:43:19;98866.50;;;22.93;nan
72975;BME280;61166;54.228;37.632;2023-08-24T12:45:46;98866.97;;;22.95;nan
72975;BME280;61166;54.228;37.632;2023-08-24T12:48:12;98866.09;;;22.99;nan
72975;BME280;61166;54.228;37.632;2023-08-24T12:50:39;98861.59;;;22.67;nan
72975;BME280;61166;54.228;37.632;2023-08-24T12:53:06;98868.75;;;22.58;nan
72975;BME280;61166;54.228;37.632;2023-08-24T12:55:33;98868.06;;;22.39;nan
72975;BME280;61166;54.228;37.632;2023-08-24T12:57:59;98871.13;;;22.32;nan
72975;BME280;61166;54.228;37.632;2023-08-24T13:00:27;98864.69;;;22.33;nan
72975;BME280;61166;54.228;37.632;2023-08-24T13:02:55;98865.56;;;22.29;nan
72975;BME280;61166;54.228;37.632;2023-08-24T13:05:22;98868.81;;;22.26;nan
72975;BME280;61166;54.228;37.632;2023-08-24T13:07:48;98873.81;;;22.32;nan
72975;BME280;61166;54.228;37.632;2023-08-24T13:10:15;98872.97;;;22.18;nan
72975;BME280;61166;54.228;37.632;2023-08-24T13:12:42;98868.31;;;22.24;nan
72975;BME280;61166;54.228;37.632;2023-08-24T13:15:10;98876.47;;;22.32;nan
72975;BME280;61166;54.228;37.632;2023-08-24T13:17:36;98873.13;;;22.40;nan
72975;BME280;61166;54.228;37.632;2023-08-24T13:20:05;98874.00;;;22.36;nan
72975;BME280;61166;54.228;37.632;2023-08-24T13:22:31;98870.66;;;22.44;nan